createdAt,value
2018-01-22T00:00:48.138Z,99708.23
2018-01-22T00:03:16.565Z,99707.44
2018-01-22T00:05:45.003Z,99701.38
2018-01-22T00:08:13.474Z,99709.02
2018-01-22T00:10:41.913Z,99703.56
2018-01-22T00:13:10.361Z,99700.25
2018-01-22T00:15:38.814Z,99690.88
2018-01-22T00:18:07.227Z,99689.98
2018-01-22T00:20:35.613Z,99688.92
2018-01-22T00:23:04.043Z,99692.46
2018-01-22T00:25:32.478Z,99692.58
2018-01-22T00:28:00.879Z,99689.30
2018-01-22T00:30:29.329Z,99699.99
2018-01-22T00:32:57.758Z,99698.11
2018-01-22T00:35:26.175Z,99686.48
2018-01-22T00:37:54.658Z,99682.41
2018-01-22T00:40:23.077Z,99678.77
2018-01-22T00:42:51.489Z,99669.05
2018-01-22T00:45:19.929Z,99655.19
2018-01-22T00:47:48.352Z,99649.09
2018-01-22T00:50:16.774Z,99643.89
2018-01-22T00:52:45.253Z,99631.64
2018-01-22T00:55:13.661Z,99625.30
2018-01-22T00:57:42.073Z,99614.17
2018-01-22T01:00:11.429Z,99613.25
2018-01-22T01:02:39.845Z,99603.88
2018-01-22T01:05:08.278Z,99592.84
2018-01-22T01:07:36.749Z,99591.31
2018-01-22T01:10:05.140Z,99579.55
2018-01-22T01:12:33.555Z,99564.27
2018-01-22T01:15:01.980Z,99569.89
2018-01-22T01:17:30.366Z,99568.98
2018-01-22T01:19:58.781Z,99562.40
2018-01-22T01:22:27.278Z,99555.59
2018-01-22T01:24:55.705Z,99559.63
2018-01-22T01:27:24.138Z,99538.70
2018-01-22T01:29:52.601Z,99540.84
2018-01-22T01:32:21.018Z,99537.05
2018-01-22T01:34:49.414Z,99543.59
2018-01-22T01:37:17.865Z,99541.27
2018-01-22T01:39:46.289Z,99530.15
2018-01-22T01:42:14.677Z,99518.30
2018-01-22T01:44:43.117Z,99496.27
2018-01-22T01:47:11.507Z,99488.13
2018-01-22T01:49:39.938Z,99494.28
2018-01-22T01:52:08.403Z,99492.04
2018-01-22T01:54:36.806Z,99480.30
2018-01-22T01:57:05.209Z,99480.22
2018-01-22T01:59:33.642Z,99485.79
2018-01-22T02:02:02.048Z,99483.78
2018-01-22T02:04:30.469Z,99467.08
2018-01-22T02:06:58.930Z,99464.55
2018-01-22T02:09:32.163Z,99459.23
2018-01-22T02:12:00.625Z,99452.11
2018-01-22T02:14:29.057Z,99438.81
2018-01-22T02:16:57.494Z,99426.47
2018-01-22T02:19:25.959Z,99423.09
2018-01-22T02:21:54.357Z,99421.03
2018-01-22T02:24:22.774Z,99419.29
2018-01-22T02:26:51.198Z,99418.10
2018-01-22T02:29:19.585Z,99410.20
2018-01-22T02:31:48.043Z,99423.42
2018-01-22T02:34:16.512Z,99425.67
2018-01-22T02:36:44.889Z,99429.06
2018-01-22T02:39:13.285Z,99438.28
2018-01-22T02:41:41.750Z,99436.02
2018-01-22T02:44:10.141Z,99444.05
2018-01-22T02:46:38.597Z,99442.25
2018-01-22T02:49:07.045Z,99447.09
2018-01-22T02:51:35.771Z,99448.79
2018-01-22T02:54:04.215Z,99444.30
2018-01-22T02:56:32.693Z,99434.75
2018-01-22T02:59:01.126Z,99421.48
2018-01-22T03:01:29.564Z,99403.70
2018-01-22T03:03:58.018Z,99402.75
2018-01-22T03:06:26.408Z,99393.90
2018-01-22T03:08:54.842Z,99387.02
2018-01-22T03:11:23.335Z,99376.48
2018-01-22T03:13:51.726Z,99370.63
2018-01-22T03:16:20.154Z,99367.91
2018-01-22T03:18:48.638Z,99368.98
2018-01-22T03:21:17.084Z,99378.09
2018-01-22T03:23:45.517Z,99383.44
2018-01-22T03:26:13.961Z,99380.31
2018-01-22T03:28:42.354Z,99385.45
2018-01-22T03:31:10.796Z,99379.98
2018-01-22T03:33:39.262Z,99379.11
2018-01-22T03:36:07.687Z,99368.28
2018-01-22T03:38:36.107Z,99349.50
2018-01-22T03:41:04.582Z,99352.76
2018-01-22T03:43:32.969Z,99350.48
2018-01-22T03:46:01.358Z,99350.32
2018-01-22T03:48:29.815Z,99346.00
2018-01-22T03:50:58.243Z,99326.84
2018-01-22T03:53:26.630Z,99325.45
2018-01-22T03:55:55.054Z,99318.98
2018-01-22T03:58:23.444Z,99312.64
2018-01-22T04:00:51.855Z,99310.42
2018-01-22T04:03:20.334Z,99297.66
2018-01-22T04:05:48.731Z,99276.70
2018-01-22T04:08:17.146Z,99260.03
2018-01-22T04:10:45.625Z,99258.83
2018-01-22T04:13:14.026Z,99244.95
2018-01-22T04:15:42.426Z,99237.46
2018-01-22T04:18:11.806Z,99253.31
2018-01-22T04:20:40.194Z,99258.17
2018-01-22T04:23:08.605Z,99249.69
2018-01-22T04:25:37.056Z,99256.73
2018-01-22T04:28:05.481Z,99254.83
2018-01-22T04:30:33.863Z,99266.94
2018-01-22T04:33:02.319Z,99268.96
2018-01-22T04:35:30.741Z,99268.79
2018-01-22T04:37:59.129Z,99269.33
2018-01-22T04:40:27.573Z,99270.11
2018-01-22T04:42:56.002Z,99265.37
2018-01-22T04:45:24.471Z,99258.95
2018-01-22T04:47:52.927Z,99260.99
2018-01-22T04:50:21.331Z,99252.19
2018-01-22T04:52:49.761Z,99250.08
2018-01-22T04:55:18.262Z,99246.09
2018-01-22T04:57:46.662Z,99244.36
2018-01-22T05:00:15.083Z,99252.60
2018-01-22T05:02:43.521Z,99239.78
2018-01-22T05:05:11.927Z,99229.19
2018-01-22T05:07:40.351Z,99223.14
2018-01-22T05:10:08.789Z,99228.00
2018-01-22T05:12:37.222Z,99231.00
2018-01-22T05:15:05.645Z,99226.55
2018-01-22T05:17:34.067Z,99209.13
2018-01-22T05:20:02.831Z,99197.51
2018-01-22T05:22:31.253Z,99192.52
2018-01-22T05:24:59.693Z,99190.36
2018-01-22T05:27:28.086Z,99191.52
2018-01-22T05:29:56.499Z,99188.76
2018-01-22T05:32:24.957Z,99192.23
2018-01-22T05:34:53.340Z,99203.48
2018-01-22T05:37:21.776Z,99194.02
2018-01-22T05:39:50.214Z,99194.66
2018-01-22T05:42:18.652Z,99196.89
2018-01-22T05:44:47.093Z,99200.56
2018-01-22T05:47:15.575Z,99205.12
2018-01-22T05:49:43.962Z,99217.39
2018-01-22T05:52:12.386Z,99210.08
2018-01-22T05:54:40.838Z,99192.70
2018-01-22T05:57:09.270Z,99185.50
2018-01-22T05:59:37.697Z,99172.15
2018-01-22T06:02:13.028Z,99174.78
2018-01-22T06:04:41.480Z,99177.80
2018-01-22T06:07:09.928Z,99177.98
2018-01-22T06:09:38.397Z,99176.28
2018-01-22T06:12:06.828Z,99180.96
2018-01-22T06:14:35.247Z,99174.48
2018-01-22T06:17:03.686Z,99171.30
2018-01-22T06:19:32.122Z,99171.15
2018-01-22T06:22:00.562Z,99164.67
2018-01-22T06:24:29.044Z,99167.80
2018-01-22T06:26:57.473Z,99161.78
2018-01-22T06:29:25.932Z,99155.45
2018-01-22T06:31:54.411Z,99156.22
2018-01-22T06:34:22.807Z,99146.05
2018-01-22T06:36:51.231Z,99139.58
2018-01-22T06:39:19.702Z,99138.63
2018-01-22T06:41:48.130Z,99138.47
2018-01-22T06:44:16.549Z,99141.16
2018-01-22T06:46:45.008Z,99133.63
2018-01-22T06:49:13.408Z,99128.27
2018-01-22T06:51:41.786Z,99133.84
2018-01-22T06:54:10.272Z,99128.55
2018-01-22T06:56:38.720Z,99128.83
2018-01-22T06:59:07.151Z,99133.15
2018-01-22T07:01:35.581Z,99129.06
2018-01-22T07:04:03.979Z,99132.77
2018-01-22T07:06:32.366Z,99130.39
2018-01-22T07:09:00.851Z,99134.47
2018-01-22T07:11:29.310Z,99121.64
2018-01-22T07:13:57.731Z,99112.01
2018-01-22T07:16:26.196Z,99114.59
2018-01-22T07:18:54.615Z,99114.28
2018-01-22T07:21:23.033Z,99112.42
2018-01-22T07:23:51.507Z,99112.27
2018-01-22T07:26:19.923Z,99112.66
2018-01-22T07:28:48.319Z,99101.53
2018-01-22T07:31:16.865Z,99102.84
2018-01-22T07:33:45.278Z,99088.19
2018-01-22T07:36:13.694Z,99099.91
2018-01-22T07:38:42.127Z,99096.33
2018-01-22T07:41:10.515Z,99096.14
2018-01-22T07:43:38.897Z,99082.61
2018-01-22T07:46:07.328Z,99075.61
2018-01-22T07:48:35.742Z,99067.81
2018-01-22T07:51:04.133Z,99076.80
2018-01-22T07:53:32.594Z,99078.25
2018-01-22T07:56:01.003Z,99079.85
2018-01-22T07:58:29.416Z,99081.99
2018-01-22T08:00:57.872Z,99074.87
2018-01-22T08:03:26.259Z,99086.00
2018-01-22T08:05:54.698Z,99086.73
2018-01-22T08:08:23.137Z,99087.27
2018-01-22T08:10:51.519Z,99092.31
2018-01-22T08:13:19.896Z,99082.55
2018-01-22T08:15:48.352Z,99086.42
2018-01-22T08:18:16.802Z,99077.20
2018-01-22T08:20:45.220Z,99074.52
2018-01-22T08:23:13.686Z,99073.30
2018-01-22T08:25:42.069Z,99064.91
2018-01-22T08:28:10.450Z,99047.34
2018-01-22T08:30:38.908Z,99045.25
2018-01-22T08:33:07.314Z,99033.98
2018-01-22T08:35:35.706Z,99027.08
2018-01-22T08:38:04.148Z,99023.48
2018-01-22T08:40:32.529Z,99018.98
2018-01-22T08:43:00.935Z,99017.68
2018-01-22T08:45:29.399Z,99021.48
2018-01-22T08:47:57.809Z,99028.30
2018-01-22T08:50:26.189Z,99030.16
2018-01-22T08:52:54.681Z,99013.26
2018-01-22T08:55:23.102Z,99021.61
2018-01-22T08:57:51.512Z,99025.69
2018-01-22T09:00:19.959Z,99015.66
2018-01-22T09:02:48.371Z,99010.44
2018-01-22T09:05:16.782Z,99012.97
2018-01-22T09:07:45.506Z,99016.98
2018-01-22T09:10:13.882Z,99018.53
2018-01-22T09:12:42.262Z,99017.16
2018-01-22T09:15:10.701Z,99003.16
2018-01-22T09:17:39.090Z,99007.52
2018-01-22T09:20:07.490Z,99000.73
2018-01-22T09:22:35.918Z,98995.93
2018-01-22T09:25:04.289Z,98992.08
2018-01-22T09:27:32.681Z,98993.94
2018-01-22T09:30:01.127Z,98996.57
2018-01-22T09:32:29.550Z,98992.08
2018-01-22T09:34:57.945Z,98994.81
2018-01-22T09:37:26.397Z,98993.98
2018-01-22T09:39:54.809Z,99001.12
2018-01-22T09:42:23.238Z,98997.39
2018-01-22T09:44:51.700Z,99007.55
2018-01-22T09:47:20.094Z,99006.95
2018-01-22T09:49:48.478Z,99000.69
2018-01-22T09:52:16.942Z,98996.41
2018-01-22T09:54:45.372Z,98990.36
2018-01-22T09:57:13.765Z,98986.61
2018-01-22T09:59:42.188Z,98994.97
2018-01-22T10:02:10.557Z,99003.98
2018-01-22T10:04:38.959Z,99003.75
2018-01-22T10:07:07.436Z,99002.64
2018-01-22T10:09:35.813Z,99001.95
2018-01-22T10:12:04.219Z,99002.44
2018-01-22T10:14:32.640Z,99009.28
2018-01-22T10:17:01.055Z,99001.95
2018-01-22T10:19:29.462Z,98999.59
2018-01-22T10:21:57.907Z,98991.88
2018-01-22T10:24:26.342Z,98997.79
2018-01-22T10:26:54.729Z,98990.47
2018-01-22T10:29:23.168Z,98995.02
2018-01-22T10:31:51.543Z,98990.14
2018-01-22T10:34:19.930Z,98990.09
2018-01-22T10:36:48.382Z,98993.21
2018-01-22T10:39:16.761Z,98990.02
2018-01-22T10:41:45.142Z,98992.48
2018-01-22T10:44:13.564Z,98987.58
2018-01-22T10:46:41.983Z,98975.90
2018-01-22T10:49:10.410Z,98972.13
2018-01-22T10:51:38.863Z,98969.91
2018-01-22T10:54:07.246Z,98970.27
2018-01-22T10:56:35.653Z,98962.59
2018-01-22T10:59:04.080Z,98965.64
2018-01-22T11:01:32.485Z,98964.22
2018-01-22T11:04:00.863Z,98957.50
2018-01-22T11:06:29.335Z,98965.22
2018-01-22T11:08:57.750Z,98963.41
2018-01-22T11:11:26.165Z,98954.27
2018-01-22T11:13:54.628Z,98950.95
2018-01-22T11:16:23.020Z,98939.95
2018-01-22T11:18:51.436Z,98942.83
2018-01-22T11:21:19.895Z,98938.51
2018-01-22T11:23:48.316Z,98943.92
2018-01-22T11:26:16.719Z,98937.25
2018-01-22T11:28:45.149Z,98932.61
2018-01-22T11:31:13.534Z,98937.75
2018-01-22T11:33:41.952Z,98937.89
2018-01-22T11:36:10.405Z,98938.70
2018-01-22T11:38:38.830Z,98936.29
2018-01-22T11:41:07.245Z,98925.02
2018-01-22T11:43:35.669Z,98927.33
2018-01-22T11:46:04.091Z,98937.97
2018-01-22T11:48:32.514Z,98930.34
2018-01-22T11:51:00.995Z,98925.16
2018-01-22T11:53:29.408Z,98932.05
2018-01-22T11:55:57.816Z,98940.24
2018-01-22T11:58:26.279Z,98932.11
2018-01-22T12:00:54.670Z,98941.97
2018-01-22T12:03:23.085Z,98940.23
2018-01-22T12:05:51.651Z,98933.14
2018-01-22T12:08:20.025Z,98935.23
2018-01-22T12:10:48.406Z,98932.56
2018-01-22T12:13:16.841Z,98929.50
2018-01-22T12:15:45.908Z,118368.60
2018-01-22T12:18:14.337Z,118368.60
2018-01-22T12:20:42.794Z,118368.60
2018-01-22T12:23:11.239Z,118368.60
2018-01-22T12:25:39.709Z,118368.60
2018-01-22T12:28:08.181Z,118368.60
2018-01-22T12:30:36.635Z,118368.60
2018-01-22T12:33:05.059Z,118368.60
2018-01-22T12:35:33.551Z,118368.60
2018-01-22T12:38:02.009Z,118368.60
2018-01-22T12:40:30.455Z,118368.60
2018-01-22T12:42:59.858Z,118368.60
2018-01-22T12:45:28.258Z,118368.60
2018-01-22T12:47:56.699Z,118368.60
2018-01-22T12:50:25.145Z,118368.60
2018-01-22T12:52:53.594Z,118368.60
2018-01-22T12:55:22.018Z,118368.60
2018-01-22T12:57:50.490Z,118368.60
2018-01-22T13:00:18.906Z,118368.60
2018-01-22T13:02:47.340Z,118368.60
2018-01-22T13:05:15.983Z,118368.60
2018-01-22T13:07:44.398Z,118368.60
2018-01-22T13:10:12.810Z,118368.60
2018-01-22T13:12:41.287Z,118368.60
2018-01-22T13:15:09.726Z,118368.60
2018-01-22T13:17:38.144Z,118368.60
2018-01-22T13:20:06.642Z,118368.60
2018-01-22T13:22:35.075Z,118368.60
2018-01-22T13:25:03.525Z,118368.60
2018-01-22T13:27:32.018Z,118368.60
2018-01-22T13:30:00.442Z,118368.60
2018-01-22T13:32:28.846Z,118368.60
2018-01-22T13:34:57.336Z,118368.60
2018-01-22T13:37:25.741Z,118368.60
2018-01-22T13:39:59.691Z,118368.60
2018-01-22T13:42:28.102Z,118368.60
2018-01-22T13:44:56.509Z,118368.60
2018-01-22T13:47:24.982Z,118368.60
2018-01-22T13:49:53.409Z,118368.60
2018-01-22T13:52:21.838Z,118368.60
2018-01-22T13:54:50.334Z,118368.60
2018-01-22T13:57:18.775Z,118368.60
2018-01-22T13:59:47.217Z,118368.60
2018-01-22T14:02:15.674Z,118368.60
2018-01-22T14:04:44.098Z,118368.60
2018-01-22T14:07:12.540Z,118368.60
2018-01-22T14:09:40.997Z,118368.60
2018-01-22T14:12:09.439Z,118368.60
2018-01-22T14:14:37.898Z,118368.60
2018-01-22T14:17:06.369Z,118368.60
2018-01-22T14:19:34.817Z,118368.60
2018-01-22T14:22:03.268Z,118368.60
2018-01-22T14:24:32.051Z,118368.60
2018-01-22T14:27:00.491Z,118368.60
2018-01-22T14:29:28.909Z,118368.60
2018-01-22T14:31:57.374Z,118368.60
2018-01-22T14:34:25.806Z,118368.60
2018-01-22T14:36:54.226Z,118368.60
2018-01-22T14:39:22.668Z,118368.60
2018-01-22T14:41:51.077Z,118368.60
2018-01-22T14:44:19.514Z,118368.60
2018-01-22T14:46:47.974Z,118368.60
2018-01-22T14:49:16.381Z,118368.60
2018-01-22T14:51:44.807Z,118368.60
2018-01-22T14:54:13.254Z,118368.60
2018-01-22T14:56:41.660Z,118368.60
2018-01-22T14:59:10.084Z,118368.60
2018-01-22T15:01:38.582Z,118368.60
2018-01-22T15:04:07.033Z,118368.60
2018-01-22T15:06:35.482Z,118368.60
2018-01-22T15:09:04.034Z,118368.60
2018-01-22T15:11:32.475Z,118368.60
2018-01-22T15:14:00.877Z,118368.60
2018-01-22T15:16:29.343Z,118368.60
2018-01-22T15:18:57.759Z,118368.60
2018-01-22T15:21:26.174Z,118368.60
2018-01-22T15:23:54.646Z,118368.60
2018-01-22T15:26:23.082Z,118368.60
2018-01-22T15:28:51.568Z,118368.60
2018-01-22T15:31:20.016Z,118368.60
2018-01-22T15:33:48.451Z,118368.60
2018-01-22T15:36:16.865Z,118368.60
2018-01-22T15:38:45.335Z,118368.60
2018-01-22T15:41:13.745Z,118368.60
2018-01-22T15:43:42.216Z,118368.60
2018-01-22T15:46:10.856Z,118368.60
2018-01-22T15:48:39.266Z,118368.60
2018-01-22T15:51:07.708Z,118368.60
2018-01-22T15:53:36.210Z,118368.60
2018-01-22T15:56:04.622Z,118368.60
2018-01-22T15:58:33.066Z,118368.60
2018-01-22T16:01:01.550Z,118368.60
2018-01-22T16:03:30.035Z,118368.60
2018-01-22T16:05:58.477Z,118368.60
2018-01-22T16:08:26.961Z,118368.60
2018-01-22T16:10:55.377Z,118368.60
2018-01-22T16:13:23.819Z,118368.60
2018-01-22T16:15:52.308Z,118368.60
2018-01-22T16:18:20.752Z,118368.60
2018-01-22T16:20:49.195Z,118368.60
2018-01-22T16:23:17.646Z,118368.60
2018-01-22T16:25:46.088Z,118368.60
2018-01-22T16:28:14.547Z,118368.60
2018-01-22T16:30:43.186Z,118368.60
2018-01-22T16:33:11.626Z,118368.60
2018-01-22T16:35:40.079Z,118368.60
2018-01-22T16:38:08.556Z,118368.60
2018-01-22T16:40:36.985Z,118368.60
2018-01-22T16:43:05.421Z,118368.60
2018-01-22T16:45:33.947Z,118368.60
2018-01-22T16:48:02.375Z,118368.60
2018-01-22T16:50:30.814Z,118368.60
2018-01-22T16:52:59.314Z,118368.60
2018-01-22T16:55:27.758Z,118368.60
2018-01-22T16:57:56.184Z,118368.60
2018-01-22T17:00:24.676Z,118368.60
2018-01-22T17:02:53.097Z,118368.60
2018-01-22T17:05:21.546Z,118368.60
2018-01-22T17:07:50.009Z,118368.60
2018-01-22T17:10:18.422Z,118368.60
2018-01-22T17:12:46.835Z,118368.60
2018-01-22T17:15:15.326Z,118368.60
2018-01-22T17:17:43.781Z,118368.60
2018-01-22T17:20:12.232Z,118368.60
2018-01-22T17:22:40.689Z,118368.60
2018-01-22T17:25:26.769Z,99278.79
2018-01-22T17:27:55.228Z,99280.80
2018-01-22T17:30:23.650Z,99290.53
2018-01-22T17:32:52.071Z,99295.49
2018-01-22T17:35:20.545Z,99295.41
2018-01-22T17:37:49.027Z,99295.77
2018-01-22T17:40:17.447Z,99298.92
2018-01-22T17:42:46.006Z,99302.20
2018-01-22T17:45:14.422Z,99305.39
2018-01-22T17:47:42.886Z,99310.13
2018-01-22T17:50:11.362Z,99315.78
2018-01-22T17:52:39.754Z,99321.05
2018-01-22T17:55:08.137Z,99329.34
2018-01-22T17:57:36.617Z,99326.98
2018-01-22T18:00:06.013Z,99336.84
2018-01-22T18:02:34.439Z,99344.78
2018-01-22T18:05:02.907Z,99351.48
2018-01-22T18:07:31.339Z,99350.84
2018-01-22T18:09:59.766Z,99358.95
2018-01-22T18:12:28.224Z,99369.81
2018-01-22T18:14:56.643Z,99370.23
2018-01-22T18:17:25.032Z,99375.47
2018-01-22T18:19:53.477Z,99382.31
2018-01-22T18:22:21.871Z,99385.23
2018-01-22T18:24:50.256Z,99392.23
2018-01-22T18:27:18.723Z,99396.77
2018-01-22T18:29:47.126Z,99391.55
2018-01-22T18:32:15.542Z,99399.16
2018-01-22T18:34:44.110Z,99396.53
2018-01-22T18:37:12.490Z,99403.35
2018-01-22T18:39:40.905Z,99403.41
2018-01-22T18:42:09.358Z,99406.77
2018-01-22T18:44:37.757Z,99410.77
2018-01-22T18:47:06.186Z,99417.03
2018-01-22T18:49:34.638Z,99425.33
2018-01-22T18:52:03.078Z,99423.45
2018-01-22T18:54:31.465Z,99421.58
2018-01-22T18:56:59.921Z,99420.09
2018-01-22T18:59:28.335Z,99426.27
2018-01-22T19:01:56.785Z,99427.42
2018-01-22T19:04:25.258Z,99425.05
2018-01-22T19:06:53.645Z,99429.99
2018-01-22T19:09:22.062Z,99429.22
2018-01-22T19:11:50.524Z,99424.89
2018-01-22T19:14:18.919Z,99428.34
2018-01-22T19:16:47.303Z,99426.95
2018-01-22T19:19:15.743Z,99423.92
2018-01-22T19:21:44.160Z,99426.98
2018-01-22T19:24:12.570Z,99435.14
2018-01-22T19:26:41.043Z,99430.59
2018-01-22T19:29:09.462Z,99433.80
2018-01-22T19:31:37.887Z,99438.28
2018-01-22T19:34:06.354Z,99444.85
2018-01-22T19:36:34.750Z,99450.56
2018-01-22T19:39:03.200Z,99450.56
2018-01-22T19:41:31.692Z,99457.60
2018-01-22T19:44:00.089Z,99459.28
2018-01-22T19:46:28.507Z,99466.20
2018-01-22T19:48:56.969Z,99475.02
2018-01-22T19:51:25.394Z,99477.16
2018-01-22T19:53:53.817Z,99486.02
2018-01-22T19:56:22.247Z,99491.92
2018-01-22T19:58:50.665Z,99496.41
2018-01-22T20:01:19.057Z,99502.61
2018-01-22T20:03:47.496Z,99510.03
2018-01-22T20:06:15.922Z,99522.23
2018-01-22T20:08:44.314Z,99524.52
2018-01-22T20:11:12.746Z,99519.83
2018-01-22T20:13:41.199Z,99519.55
2018-01-22T20:16:09.596Z,99525.15
2018-01-22T20:18:38.068Z,99530.76
2018-01-22T20:21:06.550Z,99538.31
2018-01-22T20:23:34.954Z,99536.99
2018-01-22T20:26:03.424Z,99541.08
2018-01-22T20:28:31.813Z,99545.96
2018-01-22T20:31:00.247Z,99547.07
2018-01-22T20:33:28.712Z,99546.68
2018-01-22T20:35:57.138Z,99546.73
2018-01-22T20:38:25.593Z,99548.41
2018-01-22T20:40:54.122Z,99553.80
2018-01-22T20:43:22.522Z,99561.17
2018-01-22T20:45:50.909Z,99564.71
2018-01-22T20:48:19.357Z,99566.25
2018-01-22T20:50:47.787Z,99565.73
2018-01-22T20:53:16.182Z,99572.63
2018-01-22T20:55:44.612Z,99579.56
2018-01-22T20:58:13.039Z,99586.73
2018-01-22T21:00:41.481Z,99583.63
2018-01-22T21:03:09.956Z,99590.69
2018-01-22T21:05:38.377Z,99600.30
2018-01-22T21:08:06.803Z,99597.23
2018-01-22T21:10:35.272Z,99602.17
2018-01-22T21:13:03.665Z,99606.48
2018-01-22T21:15:32.066Z,99611.69
2018-01-22T21:18:00.506Z,99608.37
2018-01-22T21:20:28.908Z,99623.36
2018-01-22T21:22:57.327Z,99618.89
2018-01-22T21:25:25.793Z,99622.26
2018-01-22T21:27:54.208Z,99630.98
2018-01-22T21:30:22.609Z,99640.27
2018-01-22T21:32:51.059Z,99640.41
2018-01-22T21:35:19.453Z,99647.95
2018-01-22T21:37:47.847Z,99648.25
2018-01-22T21:40:16.337Z,99653.58
2018-01-22T21:42:44.755Z,99649.91
2018-01-22T21:45:13.138Z,99654.58
2018-01-22T21:47:41.558Z,99658.55
2018-01-22T21:50:09.949Z,99653.47
2018-01-22T21:52:38.363Z,99659.69
2018-01-22T21:55:07.133Z,99662.61
2018-01-22T21:57:35.573Z,99663.77
2018-01-22T22:00:04.059Z,99659.33
2018-01-22T22:02:32.499Z,99671.34
2018-01-22T22:05:00.914Z,99676.23
2018-01-22T22:07:29.349Z,99675.33
2018-01-22T22:09:57.805Z,99683.84
2018-01-22T22:12:26.226Z,99683.14
2018-01-22T22:14:54.617Z,99698.31
2018-01-22T22:17:23.969Z,99700.75
2018-01-22T22:19:52.399Z,99704.72
2018-01-22T22:22:20.840Z,99709.84
2018-01-22T22:24:49.307Z,99716.25
2018-01-22T22:27:17.713Z,99718.16
2018-01-22T22:29:46.113Z,99719.20
2018-01-22T22:32:14.551Z,99720.48
2018-01-22T22:34:42.942Z,99724.73
2018-01-22T22:37:11.335Z,99732.28
2018-01-22T22:39:39.882Z,99738.27
2018-01-22T22:42:08.309Z,99739.19
2018-01-22T22:44:36.743Z,99743.89
2018-01-22T22:47:05.241Z,99754.02
2018-01-22T22:49:33.670Z,99753.70
2018-01-22T22:52:02.078Z,99751.09
2018-01-22T22:54:30.526Z,99756.84
2018-01-22T22:56:58.946Z,99755.02
2018-01-22T22:59:27.352Z,99752.17
2018-01-22T23:01:55.813Z,99756.16
2018-01-22T23:04:24.239Z,99766.82
2018-01-22T23:06:52.645Z,99768.56
2018-01-22T23:09:21.106Z,99778.59
2018-01-22T23:11:49.533Z,99783.15
2018-01-22T23:14:17.952Z,99793.23
2018-01-22T23:16:46.427Z,99801.41
2018-01-22T23:19:14.882Z,99804.83
2018-01-22T23:21:43.312Z,99811.02
2018-01-22T23:24:11.895Z,99812.33
2018-01-22T23:26:40.285Z,99813.84
2018-01-22T23:29:08.711Z,99823.50
2018-01-22T23:31:37.169Z,99821.26
2018-01-22T23:34:05.558Z,99821.72
2018-01-22T23:36:33.964Z,99828.89
2018-01-22T23:39:02.469Z,99827.94
2018-01-22T23:41:30.889Z,99837.40
2018-01-22T23:43:59.285Z,99830.77
2018-01-22T23:46:27.732Z,99847.47
2018-01-22T23:48:56.172Z,99850.81
2018-01-22T23:51:24.603Z,99849.70
2018-01-22T23:53:53.059Z,99854.56
2018-01-22T23:56:21.484Z,99853.69
2018-01-22T23:58:49.887Z,99859.13
